sensor_id;sensor_type;location;lat;lon;timestamp;P1;durP1;ratioP1;P2;durP2;ratioP2
36233;SDS011;43467;50.890;5.982;2023-05-10T00:01:57;22.65;;;15.25;;
36233;SDS011;43467;50.890;5.982;2023-05-10T00:04:23;20.23;;;14.45;;
36233;SDS011;43467;50.890;5.982;2023-05-10T00:06:52;20.33;;;14.82;;
36233;SDS011;43467;50.890;5.982;2023-05-10T00:09:17;23.65;;;15.00;;
36233;SDS011;43467;50.890;5.982;2023-05-10T00:11:43;21.25;;;14.93;;
36233;SDS011;43467;50.890;5.982;2023-05-10T00:14:08;20.35;;;14.68;;
36233;SDS011;43467;50.890;5.982;2023-05-10T00:16:34;21.20;;;15.05;;
36233;SDS011;43467;50.890;5.982;2023-05-10T00:18:59;19.98;;;14.05;;
36233;SDS011;43467;50.890;5.982;2023-05-10T00:21:24;19.92;;;14.40;;
36233;SDS011;43467;50.890;5.982;2023-05-10T00:23:50;23.88;;;14.88;;
36233;SDS011;43467;50.890;5.982;2023-05-10T00:26:15;26.17;;;16.30;;
36233;SDS011;43467;50.890;5.982;2023-05-10T00:28:41;21.60;;;14.60;;
36233;SDS011;43467;50.890;5.982;2023-05-10T00:31:07;22.88;;;14.77;;
36233;SDS011;43467;50.890;5.982;2023-05-10T00:33:32;24.60;;;15.65;;
36233;SDS011;43467;50.890;5.982;2023-05-10T00:35:58;22.88;;;15.90;;
36233;SDS011;43467;50.890;5.982;2023-05-10T00:38:24;25.45;;;15.23;;
36233;SDS011;43467;50.890;5.982;2023-05-10T00:40:49;24.17;;;16.80;;
36233;SDS011;43467;50.890;5.982;2023-05-10T00:43:15;25.80;;;17.65;;
36233;SDS011;43467;50.890;5.982;2023-05-10T00:45:40;25.13;;;17.95;;
36233;SDS011;43467;50.890;5.982;2023-05-10T00:48:06;25.80;;;18.35;;
36233;SDS011;43467;50.890;5.982;2023-05-10T00:50:32;28.08;;;18.15;;
36233;SDS011;43467;50.890;5.982;2023-05-10T00:52:59;26.13;;;18.08;;
36233;SDS011;43467;50.890;5.982;2023-05-10T00:55:25;26.23;;;17.50;;
36233;SDS011;43467;50.890;5.982;2023-05-10T00:57:52;25.52;;;16.70;;
36233;SDS011;43467;50.890;5.982;2023-05-10T01:00:18;23.58;;;16.50;;
36233;SDS011;43467;50.890;5.982;2023-05-10T01:02:44;22.65;;;15.70;;
36233;SDS011;43467;50.890;5.982;2023-05-10T01:05:11;22.60;;;15.73;;
36233;SDS011;43467;50.890;5.982;2023-05-10T01:07:37;23.05;;;15.85;;
36233;SDS011;43467;50.890;5.982;2023-05-10T01:10:04;20.27;;;15.10;;
36233;SDS011;43467;50.890;5.982;2023-05-10T01:12:31;20.38;;;14.80;;
36233;SDS011;43467;50.890;5.982;2023-05-10T01:14:56;23.58;;;15.02;;
36233;SDS011;43467;50.890;5.982;2023-05-10T01:17:23;19.45;;;13.98;;
36233;SDS011;43467;50.890;5.982;2023-05-10T01:19:49;21.60;;;14.88;;
36233;SDS011;43467;50.890;5.982;2023-05-10T01:36:16;18.65;;;14.00;;
36233;SDS011;43467;50.890;5.982;2023-05-10T01:44:35;19.08;;;12.35;;
36233;SDS011;43467;50.890;5.982;2023-05-10T01:47:12;13.60;;;11.50;;
36233;SDS011;43467;50.890;5.982;2023-05-10T01:49:50;16.55;;;12.05;;
36233;SDS011;43467;50.890;5.982;2023-05-10T01:52:19;16.85;;;11.35;;
36233;SDS011;43467;50.890;5.982;2023-05-10T01:55:07;17.10;;;11.90;;
36233;SDS011;43467;50.890;5.982;2023-05-10T01:57:36;17.48;;;11.20;;
36233;SDS011;43467;50.890;5.982;2023-05-10T02:00:06;14.45;;;11.48;;
36233;SDS011;43467;50.890;5.982;2023-05-10T02:02:36;16.70;;;11.63;;
36233;SDS011;43467;50.890;5.982;2023-05-10T02:05:04;14.50;;;10.38;;
36233;SDS011;43467;50.890;5.982;2023-05-10T02:07:31;14.68;;;9.93;;
36233;SDS011;43467;50.890;5.982;2023-05-10T02:10:00;16.25;;;11.38;;
36233;SDS011;43467;50.890;5.982;2023-05-10T02:12:27;14.48;;;10.23;;
36233;SDS011;43467;50.890;5.982;2023-05-10T02:14:54;17.55;;;10.55;;
36233;SDS011;43467;50.890;5.982;2023-05-10T02:17:21;12.77;;;10.18;;
36233;SDS011;43467;50.890;5.982;2023-05-10T02:19:48;16.25;;;10.13;;
36233;SDS011;43467;50.890;5.982;2023-05-10T02:22:14;13.23;;;9.55;;
36233;SDS011;43467;50.890;5.982;2023-05-10T02:24:41;15.30;;;10.35;;
36233;SDS011;43467;50.890;5.982;2023-05-10T02:27:08;16.80;;;10.07;;
36233;SDS011;43467;50.890;5.982;2023-05-10T02:29:35;14.30;;;9.52;;
36233;SDS011;43467;50.890;5.982;2023-05-10T02:32:02;13.70;;;9.98;;
36233;SDS011;43467;50.890;5.982;2023-05-10T02:34:28;17.25;;;10.30;;
36233;SDS011;43467;50.890;5.982;2023-05-10T02:36:55;15.30;;;10.60;;
36233;SDS011;43467;50.890;5.982;2023-05-10T02:39:21;13.70;;;9.18;;
36233;SDS011;43467;50.890;5.982;2023-05-10T02:41:48;14.90;;;9.65;;
36233;SDS011;43467;50.890;5.982;2023-05-10T02:44:16;18.50;;;10.85;;
36233;SDS011;43467;50.890;5.982;2023-05-10T02:46:43;16.35;;;11.15;;
36233;SDS011;43467;50.890;5.982;2023-05-10T02:49:09;19.50;;;13.00;;
36233;SDS011;43467;50.890;5.982;2023-05-10T02:51:35;17.33;;;11.75;;
36233;SDS011;43467;50.890;5.982;2023-05-10T02:54:13;16.30;;;11.52;;
36233;SDS011;43467;50.890;5.982;2023-05-10T02:56:47;21.95;;;14.07;;
36233;SDS011;43467;50.890;5.982;2023-05-10T02:59:18;23.02;;;14.05;;
36233;SDS011;43467;50.890;5.982;2023-05-10T03:01:44;21.13;;;13.10;;
36233;SDS011;43467;50.890;5.982;2023-05-10T03:04:10;20.27;;;13.63;;
36233;SDS011;43467;50.890;5.982;2023-05-10T03:06:35;22.65;;;14.35;;
36233;SDS011;43467;50.890;5.982;2023-05-10T03:09:01;23.17;;;14.63;;
36233;SDS011;43467;50.890;5.982;2023-05-10T03:11:32;26.05;;;15.40;;
36233;SDS011;43467;50.890;5.982;2023-05-10T03:14:21;24.77;;;16.60;;
36233;SDS011;43467;50.890;5.982;2023-05-10T03:17:32;25.27;;;15.05;;
36233;SDS011;43467;50.890;5.982;2023-05-10T03:20:03;29.73;;;17.20;;
36233;SDS011;43467;50.890;5.982;2023-05-10T03:22:36;27.75;;;17.88;;
36233;SDS011;43467;50.890;5.982;2023-05-10T03:25:06;33.08;;;18.13;;
36233;SDS011;43467;50.890;5.982;2023-05-10T03:27:33;33.85;;;17.20;;
36233;SDS011;43467;50.890;5.982;2023-05-10T03:30:01;30.83;;;16.83;;
36233;SDS011;43467;50.890;5.982;2023-05-10T03:32:28;40.53;;;18.02;;
36233;SDS011;43467;50.890;5.982;2023-05-10T03:34:56;32.75;;;18.05;;
36233;SDS011;43467;50.890;5.982;2023-05-10T03:37:22;30.55;;;17.23;;
36233;SDS011;43467;50.890;5.982;2023-05-10T03:39:47;33.50;;;17.98;;
36233;SDS011;43467;50.890;5.982;2023-05-10T03:42:12;30.13;;;17.70;;
36233;SDS011;43467;50.890;5.982;2023-05-10T03:44:38;27.23;;;16.58;;
36233;SDS011;43467;50.890;5.982;2023-05-10T03:47:04;33.25;;;17.92;;
36233;SDS011;43467;50.890;5.982;2023-05-10T03:49:30;36.55;;;16.98;;
36233;SDS011;43467;50.890;5.982;2023-05-10T03:51:55;33.28;;;16.05;;
36233;SDS011;43467;50.890;5.982;2023-05-10T03:54:21;33.40;;;15.70;;
36233;SDS011;43467;50.890;5.982;2023-05-10T03:56:46;29.55;;;15.80;;
36233;SDS011;43467;50.890;5.982;2023-05-10T03:59:13;33.75;;;16.05;;
36233;SDS011;43467;50.890;5.982;2023-05-10T04:01:38;29.23;;;15.05;;
36233;SDS011;43467;50.890;5.982;2023-05-10T04:04:04;29.40;;;16.65;;
36233;SDS011;43467;50.890;5.982;2023-05-10T04:06:29;32.78;;;17.23;;
36233;SDS011;43467;50.890;5.982;2023-05-10T04:08:55;41.83;;;16.92;;
36233;SDS011;43467;50.890;5.982;2023-05-10T04:11:21;28.15;;;15.77;;
36233;SDS011;43467;50.890;5.982;2023-05-10T04:13:49;33.83;;;15.77;;
36233;SDS011;43467;50.890;5.982;2023-05-10T04:16:15;26.00;;;15.75;;
36233;SDS011;43467;50.890;5.982;2023-05-10T04:18:40;31.67;;;15.70;;
36233;SDS011;43467;50.890;5.982;2023-05-10T04:21:10;31.13;;;17.23;;
36233;SDS011;43467;50.890;5.982;2023-05-10T04:23:37;28.25;;;15.70;;
36233;SDS011;43467;50.890;5.982;2023-05-10T04:26:02;28.23;;;15.60;;
36233;SDS011;43467;50.890;5.982;2023-05-10T04:28:28;31.00;;;16.42;;
36233;SDS011;43467;50.890;5.982;2023-05-10T04:30:59;31.75;;;16.10;;
36233;SDS011;43467;50.890;5.982;2023-05-10T04:33:28;26.80;;;16.55;;
36233;SDS011;43467;50.890;5.982;2023-05-10T04:35:54;30.33;;;16.88;;
36233;SDS011;43467;50.890;5.982;2023-05-10T04:38:22;32.25;;;17.17;;
36233;SDS011;43467;50.890;5.982;2023-05-10T04:40:47;31.70;;;16.70;;
36233;SDS011;43467;50.890;5.982;2023-05-10T04:43:13;32.10;;;17.25;;
36233;SDS011;43467;50.890;5.982;2023-05-10T04:45:38;30.58;;;16.83;;
36233;SDS011;43467;50.890;5.982;2023-05-10T04:48:04;33.65;;;17.83;;
36233;SDS011;43467;50.890;5.982;2023-05-10T04:50:30;31.85;;;16.70;;
36233;SDS011;43467;50.890;5.982;2023-05-10T04:52:56;26.42;;;16.13;;
36233;SDS011;43467;50.890;5.982;2023-05-10T04:55:22;28.95;;;16.95;;
36233;SDS011;43467;50.890;5.982;2023-05-10T04:57:47;31.35;;;17.85;;
36233;SDS011;43467;50.890;5.982;2023-05-10T05:00:13;29.35;;;16.65;;
36233;SDS011;43467;50.890;5.982;2023-05-10T05:02:41;37.92;;;18.80;;
36233;SDS011;43467;50.890;5.982;2023-05-10T05:05:08;30.25;;;17.50;;
36233;SDS011;43467;50.890;5.982;2023-05-10T05:07:34;34.90;;;17.67;;
36233;SDS011;43467;50.890;5.982;2023-05-10T05:09:59;34.78;;;17.38;;
36233;SDS011;43467;50.890;5.982;2023-05-10T05:12:25;30.83;;;18.10;;
36233;SDS011;43467;50.890;5.982;2023-05-10T05:14:50;31.25;;;17.52;;
36233;SDS011;43467;50.890;5.982;2023-05-10T05:17:15;30.63;;;17.25;;
36233;SDS011;43467;50.890;5.982;2023-05-10T05:19:41;29.75;;;15.93;;
36233;SDS011;43467;50.890;5.982;2023-05-10T05:22:06;31.17;;;17.38;;
36233;SDS011;43467;50.890;5.982;2023-05-10T05:24:36;31.55;;;15.55;;
36233;SDS011;43467;50.890;5.982;2023-05-10T05:27:03;30.08;;;16.33;;
36233;SDS011;43467;50.890;5.982;2023-05-10T05:29:28;27.95;;;15.90;;
36233;SDS011;43467;50.890;5.982;2023-05-10T05:31:54;25.70;;;15.52;;
36233;SDS011;43467;50.890;5.982;2023-05-10T05:34:20;26.08;;;15.70;;
36233;SDS011;43467;50.890;5.982;2023-05-10T05:36:46;28.42;;;14.85;;
36233;SDS011;43467;50.890;5.982;2023-05-10T05:39:12;22.20;;;13.77;;
36233;SDS011;43467;50.890;5.982;2023-05-10T05:41:37;23.85;;;13.82;;
36233;SDS011;43467;50.890;5.982;2023-05-10T05:44:02;23.52;;;14.38;;
36233;SDS011;43467;50.890;5.982;2023-05-10T05:46:28;18.35;;;13.13;;
36233;SDS011;43467;50.890;5.982;2023-05-10T05:48:53;21.92;;;13.15;;
36233;SDS011;43467;50.890;5.982;2023-05-10T05:51:19;23.50;;;14.77;;
36233;SDS011;43467;50.890;5.982;2023-05-10T05:53:45;23.23;;;15.02;;
36233;SDS011;43467;50.890;5.982;2023-05-10T05:56:10;23.95;;;14.38;;
36233;SDS011;43467;50.890;5.982;2023-05-10T05:58:36;26.90;;;15.75;;
36233;SDS011;43467;50.890;5.982;2023-05-10T06:01:01;22.17;;;14.02;;
36233;SDS011;43467;50.890;5.982;2023-05-10T06:03:27;24.13;;;15.00;;
36233;SDS011;43467;50.890;5.982;2023-05-10T06:05:52;24.85;;;15.05;;
36233;SDS011;43467;50.890;5.982;2023-05-10T06:08:17;24.05;;;13.93;;
36233;SDS011;43467;50.890;5.982;2023-05-10T06:10:43;22.90;;;13.60;;
36233;SDS011;43467;50.890;5.982;2023-05-10T06:13:09;21.17;;;12.88;;
36233;SDS011;43467;50.890;5.982;2023-05-10T06:15:34;18.15;;;12.05;;
36233;SDS011;43467;50.890;5.982;2023-05-10T06:18:00;19.85;;;12.07;;
36233;SDS011;43467;50.890;5.982;2023-05-10T06:20:25;18.40;;;11.75;;
36233;SDS011;43467;50.890;5.982;2023-05-10T06:22:51;16.50;;;10.98;;
36233;SDS011;43467;50.890;5.982;2023-05-10T06:25:16;30.85;;;12.60;;
36233;SDS011;43467;50.890;5.982;2023-05-10T06:27:43;14.65;;;9.52;;
36233;SDS011;43467;50.890;5.982;2023-05-10T06:30:09;16.75;;;10.40;;
36233;SDS011;43467;50.890;5.982;2023-05-10T06:32:34;20.55;;;12.27;;
36233;SDS011;43467;50.890;5.982;2023-05-10T06:35:00;16.23;;;10.63;;
36233;SDS011;43467;50.890;5.982;2023-05-10T06:37:25;14.60;;;10.52;;
36233;SDS011;43467;50.890;5.982;2023-05-10T06:39:51;14.82;;;10.32;;
36233;SDS011;43467;50.890;5.982;2023-05-10T06:42:16;14.80;;;9.80;;
36233;SDS011;43467;50.890;5.982;2023-05-10T06:44:41;12.60;;;9.63;;
36233;SDS011;43467;50.890;5.982;2023-05-10T06:47:08;14.55;;;9.68;;
36233;SDS011;43467;50.890;5.982;2023-05-10T06:49:34;13.75;;;8.65;;
36233;SDS011;43467;50.890;5.982;2023-05-10T06:51:59;12.80;;;8.68;;
36233;SDS011;43467;50.890;5.982;2023-05-10T06:54:25;16.15;;;9.45;;
36233;SDS011;43467;50.890;5.982;2023-05-10T06:56:50;16.48;;;9.43;;
36233;SDS011;43467;50.890;5.982;2023-05-10T06:59:16;13.27;;;9.23;;
36233;SDS011;43467;50.890;5.982;2023-05-10T07:01:41;17.55;;;11.60;;
36233;SDS011;43467;50.890;5.982;2023-05-10T07:04:07;22.40;;;13.23;;
36233;SDS011;43467;50.890;5.982;2023-05-10T07:06:33;22.65;;;13.30;;
36233;SDS011;43467;50.890;5.982;2023-05-10T07:08:59;30.48;;;16.67;;
36233;SDS011;43467;50.890;5.982;2023-05-10T07:11:24;38.83;;;19.92;;
36233;SDS011;43467;50.890;5.982;2023-05-10T07:13:50;38.60;;;20.65;;
36233;SDS011;43467;50.890;5.982;2023-05-10T07:16:15;40.67;;;22.75;;
36233;SDS011;43467;50.890;5.982;2023-05-10T07:18:41;48.00;;;25.48;;
36233;SDS011;43467;50.890;5.982;2023-05-10T07:21:06;47.60;;;24.42;;
36233;SDS011;43467;50.890;5.982;2023-05-10T07:23:32;48.10;;;23.48;;
36233;SDS011;43467;50.890;5.982;2023-05-10T07:25:57;45.95;;;23.40;;
36233;SDS011;43467;50.890;5.982;2023-05-10T07:28:23;51.33;;;26.42;;
36233;SDS011;43467;50.890;5.982;2023-05-10T07:30:51;45.95;;;23.80;;
36233;SDS011;43467;50.890;5.982;2023-05-10T07:33:17;49.83;;;25.00;;
36233;SDS011;43467;50.890;5.982;2023-05-10T07:35:42;46.72;;;25.05;;
36233;SDS011;43467;50.890;5.982;2023-05-10T07:38:08;49.75;;;26.38;;
36233;SDS011;43467;50.890;5.982;2023-05-10T07:40:33;49.30;;;24.83;;
36233;SDS011;43467;50.890;5.982;2023-05-10T07:42:59;48.88;;;25.00;;
36233;SDS011;43467;50.890;5.982;2023-05-10T07:45:27;43.22;;;23.88;;
36233;SDS011;43467;50.890;5.982;2023-05-10T07:47:53;42.97;;;22.00;;
36233;SDS011;43467;50.890;5.982;2023-05-10T07:50:18;39.55;;;22.35;;
36233;SDS011;43467;50.890;5.982;2023-05-10T07:52:44;45.70;;;22.65;;
36233;SDS011;43467;50.890;5.982;2023-05-10T07:55:09;42.13;;;23.08;;
36233;SDS011;43467;50.890;5.982;2023-05-10T07:57:35;43.55;;;22.80;;
36233;SDS011;43467;50.890;5.982;2023-05-10T08:00:01;43.42;;;22.08;;
36233;SDS011;43467;50.890;5.982;2023-05-10T08:02:27;44.80;;;24.13;;
36233;SDS011;43467;50.890;5.982;2023-05-10T08:04:53;46.65;;;24.13;;
36233;SDS011;43467;50.890;5.982;2023-05-10T08:07:18;48.08;;;23.48;;
36233;SDS011;43467;50.890;5.982;2023-05-10T08:09:43;47.45;;;24.75;;
36233;SDS011;43467;50.890;5.982;2023-05-10T08:12:09;52.03;;;25.55;;
36233;SDS011;43467;50.890;5.982;2023-05-10T08:14:34;49.75;;;25.60;;
36233;SDS011;43467;50.890;5.982;2023-05-10T08:17:01;50.97;;;25.25;;
36233;SDS011;43467;50.890;5.982;2023-05-10T08:19:28;45.22;;;22.92;;
36233;SDS011;43467;50.890;5.982;2023-05-10T08:21:53;49.03;;;24.17;;
36233;SDS011;43467;50.890;5.982;2023-05-10T08:24:20;51.83;;;24.02;;
36233;SDS011;43467;50.890;5.982;2023-05-10T08:26:46;44.70;;;22.35;;
36233;SDS011;43467;50.890;5.982;2023-05-10T08:29:12;41.08;;;20.88;;
36233;SDS011;43467;50.890;5.982;2023-05-10T08:31:38;35.85;;;18.45;;
36233;SDS011;43467;50.890;5.982;2023-05-10T08:34:03;34.30;;;17.85;;
36233;SDS011;43467;50.890;5.982;2023-05-10T08:36:29;25.13;;;13.50;;
36233;SDS011;43467;50.890;5.982;2023-05-10T08:38:54;19.98;;;12.00;;
36233;SDS011;43467;50.890;5.982;2023-05-10T08:41:20;16.63;;;10.48;;
36233;SDS011;43467;50.890;5.982;2023-05-10T08:43:46;15.32;;;9.63;;
36233;SDS011;43467;50.890;5.982;2023-05-10T08:46:15;14.80;;;9.43;;
36233;SDS011;43467;50.890;5.982;2023-05-10T08:48:43;14.50;;;8.73;;
36233;SDS011;43467;50.890;5.982;2023-05-10T08:51:09;10.43;;;7.57;;
36233;SDS011;43467;50.890;5.982;2023-05-10T08:53:38;12.52;;;8.05;;
36233;SDS011;43467;50.890;5.982;2023-05-10T08:56:04;12.02;;;7.50;;
36233;SDS011;43467;50.890;5.982;2023-05-10T08:58:30;13.38;;;7.03;;
36233;SDS011;43467;50.890;5.982;2023-05-10T09:00:56;9.77;;;6.53;;
36233;SDS011;43467;50.890;5.982;2023-05-10T09:03:22;11.85;;;6.32;;
36233;SDS011;43467;50.890;5.982;2023-05-10T09:05:48;11.60;;;6.47;;
36233;SDS011;43467;50.890;5.982;2023-05-10T09:08:14;9.60;;;6.60;;
36233;SDS011;43467;50.890;5.982;2023-05-10T09:10:41;9.68;;;6.65;;
36233;SDS011;43467;50.890;5.982;2023-05-10T09:13:09;10.35;;;7.03;;
36233;SDS011;43467;50.890;5.982;2023-05-10T09:15:35;10.77;;;6.38;;
36233;SDS011;43467;50.890;5.982;2023-05-10T09:18:01;10.50;;;6.13;;
36233;SDS011;43467;50.890;5.982;2023-05-10T09:20:27;8.98;;;5.95;;
36233;SDS011;43467;50.890;5.982;2023-05-10T09:22:53;9.18;;;5.50;;
36233;SDS011;43467;50.890;5.982;2023-05-10T09:25:18;7.72;;;5.20;;
36233;SDS011;43467;50.890;5.982;2023-05-10T09:27:45;8.50;;;5.40;;
36233;SDS011;43467;50.890;5.982;2023-05-10T09:30:15;11.48;;;5.97;;
36233;SDS011;43467;50.890;5.982;2023-05-10T09:32:51;8.38;;;5.43;;
36233;SDS011;43467;50.890;5.982;2023-05-10T09:35:18;10.02;;;5.88;;
36233;SDS011;43467;50.890;5.982;2023-05-10T09:37:47;8.30;;;5.20;;
36233;SDS011;43467;50.890;5.982;2023-05-10T09:40:15;7.78;;;5.20;;
36233;SDS011;43467;50.890;5.982;2023-05-10T09:42:51;10.23;;;5.85;;
36233;SDS011;43467;50.890;5.982;2023-05-10T09:45:31;8.25;;;5.05;;
36233;SDS011;43467;50.890;5.982;2023-05-10T09:47:59;10.05;;;6.10;;
36233;SDS011;43467;50.890;5.982;2023-05-10T09:50:26;8.15;;;5.32;;
36233;SDS011;43467;50.890;5.982;2023-05-10T09:52:59;6.75;;;4.93;;
36233;SDS011;43467;50.890;5.982;2023-05-10T09:58:03;8.95;;;6.03;;
36233;SDS011;43467;50.890;5.982;2023-05-10T10:00:35;10.93;;;6.75;;
36233;SDS011;43467;50.890;5.982;2023-05-10T10:03:05;10.60;;;6.53;;
36233;SDS011;43467;50.890;5.982;2023-05-10T10:05:32;14.05;;;8.00;;
36233;SDS011;43467;50.890;5.982;2023-05-10T10:07:58;10.65;;;7.13;;
36233;SDS011;43467;50.890;5.982;2023-05-10T10:10:25;11.48;;;7.97;;
36233;SDS011;43467;50.890;5.982;2023-05-10T10:12:51;11.23;;;8.07;;
36233;SDS011;43467;50.890;5.982;2023-05-10T10:15:17;10.75;;;7.40;;
36233;SDS011;43467;50.890;5.982;2023-05-10T10:17:45;13.50;;;8.15;;
36233;SDS011;43467;50.890;5.982;2023-05-10T10:20:11;12.30;;;8.50;;
36233;SDS011;43467;50.890;5.982;2023-05-10T10:22:37;13.68;;;9.20;;
36233;SDS011;43467;50.890;5.982;2023-05-10T10:25:03;16.45;;;9.45;;
36233;SDS011;43467;50.890;5.982;2023-05-10T10:30:20;13.40;;;8.73;;
36233;SDS011;43467;50.890;5.982;2023-05-10T10:32:59;13.85;;;8.07;;
36233;SDS011;43467;50.890;5.982;2023-05-10T10:35:38;11.45;;;8.18;;
36233;SDS011;43467;50.890;5.982;2023-05-10T10:38:04;13.73;;;8.95;;
36233;SDS011;43467;50.890;5.982;2023-05-10T10:40:33;13.90;;;9.50;;
36233;SDS011;43467;50.890;5.982;2023-05-10T10:43:20;10.07;;;7.53;;
36233;SDS011;43467;50.890;5.982;2023-05-10T10:46:10;12.48;;;9.05;;
36233;SDS011;43467;50.890;5.982;2023-05-10T10:51:39;9.13;;;6.97;;
36233;SDS011;43467;50.890;5.982;2023-05-10T10:54:28;10.30;;;6.25;;
36233;SDS011;43467;50.890;5.982;2023-05-10T10:57:14;8.48;;;6.60;;
36233;SDS011;43467;50.890;5.982;2023-05-10T10:59:43;12.02;;;7.00;;
36233;SDS011;43467;50.890;5.982;2023-05-10T11:02:09;9.13;;;6.53;;
36233;SDS011;43467;50.890;5.982;2023-05-10T11:04:41;8.60;;;6.13;;
36233;SDS011;43467;50.890;5.982;2023-05-10T11:07:17;11.07;;;6.63;;
36233;SDS011;43467;50.890;5.982;2023-05-10T11:09:44;10.80;;;7.63;;
36233;SDS011;43467;50.890;5.982;2023-05-10T11:12:12;10.13;;;6.95;;
36233;SDS011;43467;50.890;5.982;2023-05-10T11:14:37;11.45;;;6.95;;
36233;SDS011;43467;50.890;5.982;2023-05-10T11:17:21;20.67;;;8.73;;
36233;SDS011;43467;50.890;5.982;2023-05-10T11:20:10;12.48;;;7.40;;
36233;SDS011;43467;50.890;5.982;2023-05-10T11:22:54;9.73;;;6.60;;
36233;SDS011;43467;50.890;5.982;2023-05-10T11:25:20;10.85;;;6.38;;
36233;SDS011;43467;50.890;5.982;2023-05-10T11:27:51;15.07;;;7.63;;
36233;SDS011;43467;50.890;5.982;2023-05-10T11:30:17;46.20;;;10.52;;
36233;SDS011;43467;50.890;5.982;2023-05-10T11:32:42;9.15;;;6.28;;
36233;SDS011;43467;50.890;5.982;2023-05-10T11:35:12;9.23;;;6.72;;
36233;SDS011;43467;50.890;5.982;2023-05-10T11:37:40;11.75;;;7.45;;
36233;SDS011;43467;50.890;5.982;2023-05-10T11:40:08;12.82;;;6.57;;
36233;SDS011;43467;50.890;5.982;2023-05-10T11:42:38;11.40;;;7.40;;
36233;SDS011;43467;50.890;5.982;2023-05-10T11:45:04;11.93;;;6.95;;
36233;SDS011;43467;50.890;5.982;2023-05-10T11:47:30;25.63;;;7.22;;
36233;SDS011;43467;50.890;5.982;2023-05-10T11:49:56;19.35;;;7.85;;
36233;SDS011;43467;50.890;5.982;2023-05-10T11:52:23;13.32;;;6.93;;
36233;SDS011;43467;50.890;5.982;2023-05-10T11:54:52;8.80;;;6.10;;
36233;SDS011;43467;50.890;5.982;2023-05-10T11:57:20;7.80;;;5.85;;
36233;SDS011;43467;50.890;5.982;2023-05-10T11:59:53;15.90;;;5.80;;
36233;SDS011;43467;50.890;5.982;2023-05-10T12:02:21;21.00;;;6.75;;
36233;SDS011;43467;50.890;5.982;2023-05-10T12:04:46;13.57;;;5.63;;
36233;SDS011;43467;50.890;5.982;2023-05-10T12:07:12;7.93;;;4.78;;
36233;SDS011;43467;50.890;5.982;2023-05-10T12:09:42;7.65;;;5.72;;
36233;SDS011;43467;50.890;5.982;2023-05-10T12:12:27;15.20;;;6.70;;
36233;SDS011;43467;50.890;5.982;2023-05-10T12:14:59;11.50;;;5.90;;
36233;SDS011;43467;50.890;5.982;2023-05-10T12:17:27;8.70;;;5.20;;
36233;SDS011;43467;50.890;5.982;2023-05-10T12:19:53;6.25;;;5.00;;
36233;SDS011;43467;50.890;5.982;2023-05-10T12:22:20;8.20;;;5.38;;
36233;SDS011;43467;50.890;5.982;2023-05-10T12:24:46;6.88;;;5.55;;
36233;SDS011;43467;50.890;5.982;2023-05-10T12:27:12;6.78;;;4.80;;
36233;SDS011;43467;50.890;5.982;2023-05-10T12:29:41;8.65;;;5.60;;
36233;SDS011;43467;50.890;5.982;2023-05-10T12:32:09;6.90;;;4.72;;
36233;SDS011;43467;50.890;5.982;2023-05-10T12:34:35;7.93;;;5.50;;
36233;SDS011;43467;50.890;5.982;2023-05-10T12:37:02;7.85;;;5.18;;
36233;SDS011;43467;50.890;5.982;2023-05-10T12:39:41;13.93;;;5.45;;
36233;SDS011;43467;50.890;5.982;2023-05-10T12:42:10;32.50;;;7.03;;
36233;SDS011;43467;50.890;5.982;2023-05-10T12:44:36;10.63;;;4.95;;
36233;SDS011;43467;50.890;5.982;2023-05-10T12:47:02;9.73;;;4.32;;
36233;SDS011;43467;50.890;5.982;2023-05-10T12:49:27;8.25;;;5.05;;
36233;SDS011;43467;50.890;5.982;2023-05-10T12:51:52;8.98;;;4.35;;
36233;SDS011;43467;50.890;5.982;2023-05-10T12:54:18;6.53;;;4.15;;
36233;SDS011;43467;50.890;5.982;2023-05-10T12:56:43;7.03;;;4.43;;
36233;SDS011;43467;50.890;5.982;2023-05-10T12:59:09;11.63;;;4.22;;
36233;SDS011;43467;50.890;5.982;2023-05-10T13:01:34;8.75;;;3.90;;
36233;SDS011;43467;50.890;5.982;2023-05-10T13:04:00;9.73;;;3.70;;
36233;SDS011;43467;50.890;5.982;2023-05-10T13:06:25;8.77;;;3.83;;
36233;SDS011;43467;50.890;5.982;2023-05-10T13:08:51;9.07;;;4.32;;
36233;SDS011;43467;50.890;5.982;2023-05-10T13:11:16;7.43;;;4.00;;
36233;SDS011;43467;50.890;5.982;2023-05-10T13:13:44;7.70;;;4.85;;
36233;SDS011;43467;50.890;5.982;2023-05-10T13:16:10;6.28;;;4.35;;
36233;SDS011;43467;50.890;5.982;2023-05-10T13:18:36;6.07;;;4.35;;
36233;SDS011;43467;50.890;5.982;2023-05-10T13:21:01;6.50;;;4.07;;
36233;SDS011;43467;50.890;5.982;2023-05-10T13:23:28;6.80;;;4.20;;
36233;SDS011;43467;50.890;5.982;2023-05-10T13:25:54;5.80;;;3.70;;
36233;SDS011;43467;50.890;5.982;2023-05-10T13:28:19;5.07;;;3.67;;
36233;SDS011;43467;50.890;5.982;2023-05-10T13:30:45;6.05;;;3.15;;
36233;SDS011;43467;50.890;5.982;2023-05-10T13:33:10;5.82;;;3.47;;
36233;SDS011;43467;50.890;5.982;2023-05-10T13:35:36;4.53;;;3.45;;
36233;SDS011;43467;50.890;5.982;2023-05-10T13:38:01;6.80;;;3.60;;
36233;SDS011;43467;50.890;5.982;2023-05-10T13:40:27;6.80;;;2.92;;
36233;SDS011;43467;50.890;5.982;2023-05-10T13:42:53;4.10;;;2.53;;
36233;SDS011;43467;50.890;5.982;2023-05-10T13:45:18;3.67;;;2.50;;
36233;SDS011;43467;50.890;5.982;2023-05-10T13:47:44;3.85;;;2.50;;
36233;SDS011;43467;50.890;5.982;2023-05-10T13:50:09;4.80;;;2.75;;
36233;SDS011;43467;50.890;5.982;2023-05-10T13:52:35;3.22;;;1.90;;
36233;SDS011;43467;50.890;5.982;2023-05-10T13:55:00;2.63;;;2.00;;
36233;SDS011;43467;50.890;5.982;2023-05-10T13:57:26;3.47;;;2.53;;
36233;SDS011;43467;50.890;5.982;2023-05-10T13:59:51;4.38;;;2.50;;
36233;SDS011;43467;50.890;5.982;2023-05-10T14:02:17;4.30;;;2.28;;
36233;SDS011;43467;50.890;5.982;2023-05-10T14:04:42;4.45;;;2.38;;
36233;SDS011;43467;50.890;5.982;2023-05-10T14:07:08;3.28;;;2.42;;
36233;SDS011;43467;50.890;5.982;2023-05-10T14:09:33;4.57;;;2.50;;
36233;SDS011;43467;50.890;5.982;2023-05-10T14:11:59;3.42;;;2.72;;
36233;SDS011;43467;50.890;5.982;2023-05-10T14:14:24;4.13;;;2.83;;
36233;SDS011;43467;50.890;5.982;2023-05-10T14:16:50;5.05;;;2.65;;
36233;SDS011;43467;50.890;5.982;2023-05-10T14:19:15;3.97;;;2.40;;
36233;SDS011;43467;50.890;5.982;2023-05-10T14:21:40;10.80;;;2.75;;
36233;SDS011;43467;50.890;5.982;2023-05-10T14:24:06;11.38;;;3.00;;
36233;SDS011;43467;50.890;5.982;2023-05-10T14:26:32;5.78;;;3.35;;
36233;SDS011;43467;50.890;5.982;2023-05-10T14:28:58;10.75;;;3.55;;
36233;SDS011;43467;50.890;5.982;2023-05-10T14:31:24;4.78;;;2.50;;
36233;SDS011;43467;50.890;5.982;2023-05-10T14:33:50;4.45;;;2.20;;
36233;SDS011;43467;50.890;5.982;2023-05-10T14:36:16;4.30;;;2.72;;
36233;SDS011;43467;50.890;5.982;2023-05-10T14:38:42;5.05;;;2.80;;
36233;SDS011;43467;50.890;5.982;2023-05-10T14:41:07;4.90;;;2.97;;
36233;SDS011;43467;50.890;5.982;2023-05-10T14:43:33;3.47;;;2.40;;
36233;SDS011;43467;50.890;5.982;2023-05-10T14:45:58;4.18;;;2.63;;
36233;SDS011;43467;50.890;5.982;2023-05-10T14:48:24;2.97;;;2.30;;
36233;SDS011;43467;50.890;5.982;2023-05-10T14:50:49;3.88;;;2.33;;
36233;SDS011;43467;50.890;5.982;2023-05-10T14:53:15;3.42;;;2.22;;
36233;SDS011;43467;50.890;5.982;2023-05-10T14:55:41;2.65;;;2.15;;
36233;SDS011;43467;50.890;5.982;2023-05-10T14:58:07;3.05;;;2.05;;
36233;SDS011;43467;50.890;5.982;2023-05-10T15:00:32;3.30;;;2.10;;